createdAt,value
2023-04-16T00:00:59.830Z,55.2
2023-04-16T00:02:00.776Z,55.1
2023-04-16T00:03:01.828Z,54.9
2023-04-16T00:04:03.086Z,54.8
2023-04-16T00:05:03.829Z,54.6
2023-04-16T00:06:04.777Z,54.4
2023-04-16T00:07:05.722Z,54.3
2023-04-16T00:08:06.739Z,55
2023-04-16T00:09:07.949Z,55.5
2023-04-16T00:10:08.697Z,55.7
2023-04-16T00:11:09.596Z,55.9
2023-04-16T00:12:10.619Z,55.9
2023-04-16T00:13:11.678Z,55.9
2023-04-16T00:14:12.736Z,55.9
2023-04-16T00:15:13.671Z,56.4
2023-04-16T00:16:14.678Z,56.5
2023-04-16T00:17:15.746Z,56.6
2023-04-16T00:18:16.804Z,56.7
2023-04-16T00:19:17.769Z,56.7
2023-04-16T00:20:18.726Z,56.6
2023-04-16T00:21:19.782Z,56.6
2023-04-16T00:22:20.742Z,56.7
2023-04-16T00:23:21.677Z,56.8
2023-04-16T00:24:22.667Z,56.8
2023-04-16T00:25:23.599Z,57.1
2023-04-16T00:26:24.683Z,57.1
2023-04-16T00:27:25.679Z,57
2023-04-16T00:28:26.617Z,56.9
2023-04-16T00:29:27.640Z,56.6
2023-04-16T00:30:28.658Z,55.9
2023-04-16T00:31:29.617Z,55.6
2023-04-16T00:32:30.679Z,55.5
2023-04-16T00:33:31.757Z,55.4
2023-04-16T00:34:32.589Z,55.4
2023-04-16T00:35:33.735Z,55.9
2023-04-16T00:36:34.624Z,56.4
2023-04-16T00:37:35.685Z,56.6
2023-04-16T00:38:36.786Z,57.1
2023-04-16T00:39:37.608Z,57.8
2023-04-16T00:40:38.636Z,57.7
2023-04-16T00:41:39.639Z,57
2023-04-16T00:42:40.657Z,56.5
2023-04-16T00:43:41.634Z,56.4
2023-04-16T00:44:42.700Z,56.7
2023-04-16T00:45:43.555Z,57
2023-04-16T00:46:44.773Z,57.2
2023-04-16T00:47:45.770Z,57.4
2023-04-16T00:48:46.642Z,58.3
2023-04-16T00:49:47.675Z,59.1
2023-04-16T00:50:48.878Z,59.4
2023-04-16T00:51:49.983Z,58.7
2023-04-16T00:52:50.615Z,58.1
2023-04-16T00:53:51.706Z,57.7
2023-04-16T00:54:52.757Z,57.3
2023-04-16T00:55:53.618Z,57
2023-04-16T00:56:54.796Z,56.9
2023-04-16T00:57:55.645Z,56.2
2023-04-16T00:58:56.629Z,56.3
2023-04-16T00:59:57.620Z,56.4
2023-04-16T01:00:58.670Z,56.5
2023-04-16T01:01:59.711Z,55.4
2023-04-16T01:03:00.859Z,56.2
2023-04-16T01:04:01.845Z,56.5
2023-04-16T01:05:02.779Z,56.8
2023-04-16T01:06:03.686Z,57.1
2023-04-16T01:07:04.701Z,57.6
2023-04-16T01:08:05.641Z,58.3
2023-04-16T01:09:06.764Z,59.5
2023-04-16T01:10:07.686Z,59.8
2023-04-16T01:11:08.700Z,59.6
2023-04-16T01:12:09.639Z,59.4
2023-04-16T01:13:10.653Z,59.2
2023-04-16T01:14:11.660Z,59
2023-04-16T01:15:15.322Z,58.7
2023-04-16T01:16:16.883Z,58.3
2023-04-16T01:17:17.727Z,57.9
2023-04-16T01:18:18.711Z,57.9
2023-04-16T01:19:19.803Z,57.8
2023-04-16T01:20:20.642Z,57.6
2023-04-16T01:21:21.664Z,57.8
2023-04-16T01:22:22.729Z,57.9
2023-04-16T01:23:23.764Z,58
2023-04-16T01:24:24.745Z,58.1
2023-04-16T01:25:25.762Z,57.9
2023-04-16T01:26:26.700Z,57.7
2023-04-16T01:27:27.701Z,57.5
2023-04-16T01:28:28.673Z,57.3
2023-04-16T01:29:29.688Z,57.2
2023-04-16T01:30:30.641Z,57.1
2023-04-16T01:31:31.734Z,56.9
2023-04-16T01:32:32.804Z,56
2023-04-16T01:33:33.878Z,56.4
2023-04-16T01:34:34.801Z,56.4
2023-04-16T01:35:37.025Z,56.3
2023-04-16T01:36:37.710Z,56.4
2023-04-16T01:37:38.706Z,56.4
2023-04-16T01:38:39.759Z,56.5
2023-04-16T01:39:40.702Z,56.7
2023-04-16T01:40:41.661Z,56.9
2023-04-16T01:41:42.812Z,56.7
2023-04-16T01:42:43.742Z,56.6
2023-04-16T01:43:44.741Z,56.4
2023-04-16T01:44:45.662Z,56.6
2023-04-16T01:45:47.009Z,56.5
2023-04-16T01:46:47.864Z,56.5
2023-04-16T01:47:49.791Z,56.4
2023-04-16T01:48:50.688Z,56.4
2023-04-16T01:49:51.781Z,56.4
2023-04-16T01:50:52.651Z,56.4
2023-04-16T01:51:53.729Z,56.4
2023-04-16T01:52:55.261Z,56.1
2023-04-16T01:53:57.043Z,56
2023-04-16T01:54:57.665Z,56.4
2023-04-16T01:55:58.682Z,55.5
2023-04-16T01:56:59.678Z,56.4
2023-04-16T01:58:00.688Z,56.6
2023-04-16T01:59:01.760Z,56.5
2023-04-16T02:00:02.842Z,56.5
2023-04-16T02:01:03.792Z,56.4
2023-04-16T02:02:04.922Z,56.4
2023-04-16T02:03:05.837Z,56.4
2023-04-16T02:04:06.862Z,56.5
2023-04-16T02:05:07.771Z,56.7
2023-04-16T02:06:08.679Z,56.9
2023-04-16T02:07:09.658Z,56.9
2023-04-16T02:08:10.743Z,56.7
2023-04-16T02:09:12.049Z,56.5
2023-04-16T02:10:12.707Z,56.4
2023-04-16T02:11:13.625Z,56.2
2023-04-16T02:12:14.700Z,56.2
2023-04-16T02:13:15.758Z,56.2
2023-04-16T02:14:16.703Z,56.2
2023-04-16T02:15:17.730Z,56.1
2023-04-16T02:16:18.733Z,56.1
2023-04-16T02:17:19.789Z,56.1
2023-04-16T02:18:20.700Z,56.1
2023-04-16T02:19:21.732Z,56.1
2023-04-16T02:20:22.701Z,56
2023-04-16T02:21:23.782Z,56
2023-04-16T02:22:24.792Z,56
2023-04-16T02:23:25.720Z,56.1
2023-04-16T02:24:26.661Z,56.4
2023-04-16T02:25:27.776Z,56.5
2023-04-16T02:26:28.718Z,56.1
2023-04-16T02:27:29.644Z,56.5
2023-04-16T02:28:30.699Z,56.6
2023-04-16T02:29:31.688Z,56.5
2023-04-16T02:30:32.694Z,56.3
2023-04-16T02:31:33.760Z,56.4
2023-04-16T02:32:34.792Z,56.3
2023-04-16T02:33:36.240Z,56.2
2023-04-16T02:34:37.736Z,56.8
2023-04-16T02:35:38.718Z,57.5
2023-04-16T02:36:39.703Z,58.2
2023-04-16T02:37:40.808Z,58.5
2023-04-16T02:38:41.663Z,58.8
2023-04-16T02:39:42.852Z,59
2023-04-16T02:40:43.698Z,59.1
2023-04-16T02:41:44.740Z,59.1
2023-04-16T02:42:45.765Z,59.1
2023-04-16T02:43:46.701Z,59.3
2023-04-16T02:44:47.701Z,59.3
2023-04-16T02:45:48.778Z,59.6
2023-04-16T02:46:49.703Z,59.6
2023-04-16T02:47:50.692Z,59.5
2023-04-16T02:48:51.831Z,59
2023-04-16T02:49:52.736Z,59.3
2023-04-16T02:50:53.638Z,59.2
2023-04-16T02:51:54.746Z,59.3
2023-04-16T02:52:55.702Z,59.3
2023-04-16T02:53:56.724Z,59.2
2023-04-16T02:54:57.715Z,59.1
2023-04-16T02:55:58.696Z,58.9
2023-04-16T02:56:59.681Z,58.9
2023-04-16T02:58:00.710Z,58.8
2023-04-16T02:59:01.756Z,58.7
2023-04-16T03:00:02.797Z,58.6
2023-04-16T03:01:03.687Z,58.7
2023-04-16T03:02:04.724Z,58.7
2023-04-16T03:03:05.835Z,58.8
2023-04-16T03:04:06.760Z,58.6
2023-04-16T03:05:07.728Z,58.7
2023-04-16T03:06:08.724Z,58.8
2023-04-16T03:07:09.757Z,58.9
2023-04-16T03:08:10.798Z,58.6
2023-04-16T03:09:12.032Z,57.7
2023-04-16T03:10:12.697Z,56.9
2023-04-16T03:11:13.740Z,56.6
2023-04-16T03:12:14.714Z,55.9
2023-04-16T03:13:15.713Z,56.2
2023-04-16T03:14:16.858Z,56.3
2023-04-16T03:15:17.744Z,56.3
2023-04-16T03:16:18.766Z,56.3
2023-04-16T03:17:19.872Z,56.6
2023-04-16T03:18:20.889Z,56.9
2023-04-16T03:19:21.736Z,56.9
2023-04-16T03:20:22.818Z,57
2023-04-16T03:21:23.905Z,57
2023-04-16T03:22:24.751Z,56.9
2023-04-16T03:23:25.780Z,56.6
2023-04-16T03:24:26.737Z,56.6
2023-04-16T03:25:27.765Z,56.7
2023-04-16T03:26:28.739Z,56.6
2023-04-16T03:27:29.720Z,56.4
2023-04-16T03:28:30.722Z,56.4
2023-04-16T03:29:31.695Z,56.5
2023-04-16T03:30:32.771Z,56.5
2023-04-16T03:31:33.667Z,56.7
2023-04-16T03:32:34.746Z,56.9
2023-04-16T03:33:35.777Z,58.2
2023-04-16T03:34:36.779Z,58.9
2023-04-16T03:35:37.776Z,59.5
2023-04-16T03:36:38.745Z,59.9
2023-04-16T03:37:39.683Z,60.1
2023-04-16T03:38:40.783Z,60.2
2023-04-16T03:39:41.761Z,60.2
2023-04-16T03:40:42.797Z,60.1
2023-04-16T03:41:43.807Z,59.1
2023-04-16T03:42:44.757Z,58.7
2023-04-16T03:43:45.741Z,58.4
2023-04-16T03:44:46.837Z,57.8
2023-04-16T03:45:47.719Z,58.1
2023-04-16T03:46:48.841Z,58.2
2023-04-16T03:47:49.739Z,58.1
2023-04-16T03:48:50.716Z,58.1
2023-04-16T03:49:51.699Z,58
2023-04-16T03:50:52.901Z,57.9
2023-04-16T03:51:53.625Z,57.5
2023-04-16T03:52:54.726Z,57.5
2023-04-16T03:53:55.752Z,57.5
2023-04-16T03:54:56.745Z,57.3
2023-04-16T03:55:57.682Z,57.2
2023-04-16T03:56:58.701Z,56.9
2023-04-16T03:57:59.821Z,56.7
2023-04-16T03:59:00.739Z,56.6
2023-04-16T04:00:02.126Z,56.7
2023-04-16T04:01:02.827Z,56.8
2023-04-16T04:02:03.913Z,56.8
2023-04-16T04:03:05.114Z,56.8
2023-04-16T04:04:06.131Z,56.7
2023-04-16T04:05:07.051Z,56.7
2023-04-16T04:06:07.717Z,56.7
2023-04-16T04:07:08.814Z,56.7
2023-04-16T04:08:09.755Z,56.8
2023-04-16T04:09:10.916Z,56.8
2023-04-16T04:10:11.848Z,56.8
2023-04-16T04:11:12.827Z,56.5
2023-04-16T04:12:13.783Z,55.7
2023-04-16T04:13:14.758Z,56.2
2023-04-16T04:14:15.785Z,56.2
2023-04-16T04:15:16.738Z,56.2
2023-04-16T04:16:17.747Z,56.1
2023-04-16T04:17:18.741Z,56
2023-04-16T04:18:19.820Z,56.1
2023-04-16T04:19:20.923Z,56
2023-04-16T04:20:21.789Z,56
2023-04-16T04:21:22.800Z,56.1
2023-04-16T04:22:23.830Z,56.2
2023-04-16T04:23:24.766Z,56.4
2023-04-16T04:24:25.784Z,56.6
2023-04-16T04:25:26.784Z,56.8
2023-04-16T04:26:27.771Z,56.9
2023-04-16T04:27:28.690Z,57.2
2023-04-16T04:28:29.722Z,58.1
2023-04-16T04:29:30.739Z,58.1
2023-04-16T04:30:31.817Z,57.8
2023-04-16T04:31:32.706Z,57.4
2023-04-16T04:32:33.802Z,57.1
2023-04-16T04:33:34.899Z,56.6
2023-04-16T04:34:35.778Z,56.5
2023-04-16T04:35:36.858Z,56.4
2023-04-16T04:36:37.772Z,56.4
2023-04-16T04:37:38.755Z,56.4
2023-04-16T04:38:39.703Z,56.4
2023-04-16T04:39:40.786Z,56.5
2023-04-16T04:40:41.756Z,56.5
2023-04-16T04:41:42.949Z,56.7
2023-04-16T04:42:43.828Z,56.7
2023-04-16T04:43:44.786Z,56.5
2023-04-16T04:44:45.801Z,56.5
2023-04-16T04:45:46.854Z,56.6
2023-04-16T04:46:47.745Z,56.8
2023-04-16T04:47:48.853Z,56.8
2023-04-16T04:48:49.900Z,56.8
2023-04-16T04:49:50.884Z,56.8
2023-04-16T04:50:51.763Z,56.9
2023-04-16T04:51:52.760Z,56.8
2023-04-16T04:52:53.827Z,56.8
2023-04-16T04:53:54.848Z,56.9
2023-04-16T04:54:55.893Z,57
2023-04-16T04:55:58.600Z,57
2023-04-16T04:56:57.807Z,57
2023-04-16T04:57:58.777Z,56.8
2023-04-16T04:58:59.798Z,56.9
2023-04-16T05:00:00.848Z,57.1
2023-04-16T05:01:01.928Z,57.1
2023-04-16T05:02:02.857Z,57.1
2023-04-16T05:03:03.907Z,57.2
2023-04-16T05:04:05.238Z,57.2
2023-04-16T05:05:06.895Z,57.2
2023-04-16T05:06:07.792Z,57.2
2023-04-16T05:07:08.828Z,57
2023-04-16T05:08:09.811Z,56.8
2023-04-16T05:09:11.246Z,56.7
2023-04-16T05:10:11.815Z,56.7
2023-04-16T05:11:12.904Z,56.7
2023-04-16T05:12:13.801Z,56.4
2023-04-16T05:13:14.838Z,57
2023-04-16T05:14:15.780Z,57.5
2023-04-16T05:15:17.107Z,57.7
2023-04-16T05:16:18.122Z,58.1
2023-04-16T05:17:18.957Z,58.5
2023-04-16T05:18:20.067Z,59.9
2023-04-16T05:19:20.962Z,60.9
2023-04-16T05:20:22.067Z,61.4
2023-04-16T05:21:23.049Z,61.7
2023-04-16T05:22:23.821Z,61.9
2023-04-16T05:23:24.909Z,62
2023-04-16T05:24:25.800Z,61.9
2023-04-16T05:25:27.861Z,61.9
2023-04-16T05:26:29.784Z,61.5
2023-04-16T05:27:30.984Z,60.7
2023-04-16T05:28:31.843Z,60.4
2023-04-16T05:29:33.724Z,60.1
2023-04-16T05:30:34.805Z,60
2023-04-16T05:31:35.861Z,59.7
2023-04-16T05:32:36.853Z,59.4
2023-04-16T05:33:37.747Z,58.9
2023-04-16T05:34:38.809Z,58.7
2023-04-16T05:35:39.819Z,58.4
2023-04-16T05:36:41.120Z,58
2023-04-16T05:37:42.064Z,58.1
2023-04-16T05:38:42.899Z,58.2
2023-04-16T05:39:43.741Z,58.2
2023-04-16T05:40:44.845Z,58.1
2023-04-16T05:41:45.911Z,58.1
2023-04-16T05:42:46.827Z,58
2023-04-16T05:43:47.737Z,58.1
2023-04-16T05:44:50.653Z,58
2023-04-16T05:45:52.719Z,58
2023-04-16T05:46:54.040Z,58.3
2023-04-16T05:47:54.999Z,58.4
2023-04-16T05:48:55.796Z,58.2
2023-04-16T05:49:56.841Z,58.3
2023-04-16T05:50:57.874Z,58.3
2023-04-16T05:51:59.695Z,58.5
2023-04-16T05:53:00.797Z,58.5
2023-04-16T05:54:02.333Z,58.6
2023-04-16T05:55:03.962Z,59
2023-04-16T05:56:04.960Z,59
2023-04-16T05:57:06.018Z,59.3
2023-04-16T05:58:06.735Z,59.3
2023-04-16T05:59:08.215Z,59.1
2023-04-16T06:00:08.819Z,59
2023-04-16T06:01:09.779Z,59
2023-04-16T06:02:10.894Z,58.9
2023-04-16T06:03:12.185Z,58.6
2023-04-16T06:04:13.358Z,58.2
2023-04-16T06:05:15.608Z,57.9
2023-04-16T06:06:17.466Z,57.5
2023-04-16T06:07:18.879Z,57.4
2023-04-16T06:08:19.888Z,56.6
2023-04-16T06:09:20.838Z,57.1
2023-04-16T06:10:22.340Z,57.2
2023-04-16T06:11:24.117Z,57.2
2023-04-16T06:12:25.635Z,57.4
2023-04-16T06:13:26.979Z,57.3
2023-04-16T06:14:27.839Z,57.6
2023-04-16T06:15:29.009Z,58.1
2023-04-16T06:16:30.286Z,58.4
2023-04-16T06:17:32.213Z,58.2
2023-04-16T06:18:32.869Z,57.7
2023-04-16T06:19:34.038Z,57.3
2023-04-16T06:20:35.120Z,57.2
2023-04-16T06:21:36.926Z,57.1
2023-04-16T06:22:37.798Z,56.9
2023-04-16T06:23:38.778Z,56.7
2023-04-16T06:24:39.804Z,56.3
2023-04-16T06:25:40.838Z,56.3
2023-04-16T06:26:41.901Z,56.5
2023-04-16T06:27:42.837Z,57
2023-04-16T06:28:43.856Z,57.9
2023-04-16T06:29:44.781Z,58.3
2023-04-16T06:30:45.919Z,58.4
2023-04-16T06:31:46.842Z,58.3
2023-04-16T06:32:48.122Z,58.1
2023-04-16T06:33:48.996Z,57.7
2023-04-16T06:34:49.771Z,57.6
2023-04-16T06:35:51.077Z,57.5
2023-04-16T06:36:52.016Z,57.6
2023-04-16T06:37:53.645Z,57.4
2023-04-16T06:38:54.840Z,57.4
2023-04-16T06:39:55.937Z,57.1
2023-04-16T06:40:57.079Z,56.9
2023-04-16T06:41:57.803Z,56.8
2023-04-16T06:42:59.457Z,56.8
2023-04-16T06:44:00.918Z,56.8
2023-04-16T06:45:01.924Z,56.9
2023-04-16T06:46:02.835Z,56.9
2023-04-16T06:47:04.516Z,56.8
2023-04-16T06:48:06.032Z,56.9
2023-04-16T06:49:06.885Z,56.9
2023-04-16T06:50:08.351Z,56.8
2023-04-16T06:51:09.999Z,57.3
2023-04-16T06:52:10.980Z,57.3
2023-04-16T06:53:12.136Z,57.4
2023-04-16T06:54:12.859Z,57.6
2023-04-16T06:55:13.899Z,57.6
2023-04-16T06:56:14.855Z,57.8
2023-04-16T06:57:15.841Z,57.4
2023-04-16T06:58:17.067Z,57.6
2023-04-16T06:59:17.978Z,57.7
2023-04-16T07:00:18.778Z,57.5
2023-04-16T07:01:19.827Z,57.6
2023-04-16T07:02:21.114Z,57.6
2023-04-16T07:03:23.037Z,57.6
2023-04-16T07:04:24.030Z,57.6
2023-04-16T07:05:25.057Z,57.7
2023-04-16T07:06:25.843Z,57.7
2023-04-16T07:07:26.836Z,57.3
2023-04-16T07:08:27.901Z,57.7
2023-04-16T07:09:28.958Z,57.7
2023-04-16T07:10:29.705Z,57.8
2023-04-16T07:11:30.898Z,57.8
2023-04-16T07:12:31.946Z,57.6
2023-04-16T07:13:32.856Z,57.7
2023-04-16T07:14:33.860Z,57.6
2023-04-16T07:15:34.906Z,57.2
2023-04-16T07:16:36.042Z,56.9
2023-04-16T07:17:36.865Z,57.6
2023-04-16T07:18:38.016Z,57.3
2023-04-16T07:19:39.034Z,57.6
2023-04-16T07:20:39.817Z,56.8
2023-04-16T07:21:40.840Z,56.5
2023-04-16T07:22:41.998Z,56.7
2023-04-16T07:23:42.913Z,56.8
2023-04-16T07:24:43.871Z,56.9
2023-04-16T07:25:45.002Z,56.4
2023-04-16T07:26:46.142Z,56.1
2023-04-16T07:27:47.238Z,56.5
2023-04-16T07:28:47.853Z,56.5
2023-04-16T07:29:48.783Z,56.2
2023-04-16T07:30:50.876Z,56.1
2023-04-16T07:31:52.888Z,56.1
2023-04-16T07:32:54.268Z,56.3
2023-04-16T07:33:54.978Z,56.5
2023-04-16T07:34:55.976Z,56.7
2023-04-16T07:35:56.838Z,56.8
2023-04-16T07:36:57.824Z,56.9
2023-04-16T07:37:58.897Z,56.7
2023-04-16T07:38:59.850Z,56.5
2023-04-16T07:40:00.878Z,55.4
2023-04-16T07:41:02.018Z,54.9
2023-04-16T07:42:02.971Z,54.1
2023-04-16T07:43:03.863Z,53.4
2023-04-16T07:44:05.429Z,53.4
2023-04-16T07:45:07.177Z,53
2023-04-16T07:46:07.912Z,53.8
2023-04-16T07:47:08.877Z,54.3
2023-04-16T07:48:09.901Z,54.6
2023-04-16T07:49:10.906Z,54.6
2023-04-16T07:50:11.782Z,54
2023-04-16T07:51:13.117Z,53.6
2023-04-16T07:52:15.077Z,53.4
2023-04-16T07:53:15.820Z,53.8
2023-04-16T07:54:16.957Z,54.7
2023-04-16T07:55:17.925Z,55.7
2023-04-16T07:56:19.074Z,55.5
2023-04-16T07:57:19.919Z,55.3
2023-04-16T07:58:20.943Z,55.4
2023-04-16T07:59:23.813Z,55.3
2023-04-16T08:00:23.984Z,55
2023-04-16T08:01:24.858Z,54.6
2023-04-16T08:02:26.486Z,54.1
2023-04-16T08:03:28.314Z,53.6
2023-04-16T08:04:29.019Z,53.6
2023-04-16T08:05:29.911Z,53.5
2023-04-16T08:06:30.859Z,53.3
2023-04-16T08:07:33.324Z,52.8
2023-04-16T08:08:32.860Z,52.7
2023-04-16T08:09:34.323Z,52.7
2023-04-16T08:10:35.989Z,52.2
2023-04-16T08:11:36.903Z,51.9
2023-04-16T08:12:37.931Z,52.2
2023-04-16T08:13:38.956Z,52.6
2023-04-16T08:14:39.772Z,52.6
2023-04-16T08:15:41.030Z,52.7
2023-04-16T08:16:41.965Z,52.6
2023-04-16T08:17:43.019Z,52.7
2023-04-16T08:18:43.926Z,52.5
2023-04-16T08:19:45.149Z,52.2
2023-04-16T08:20:46.287Z,52.7
2023-04-16T08:21:48.130Z,52.6
2023-04-16T08:22:49.121Z,52.9
2023-04-16T08:23:50.264Z,54.4
2023-04-16T08:24:52.046Z,54.9
2023-04-16T08:25:53.140Z,55.1
2023-04-16T08:26:54.097Z,54.7
2023-04-16T08:27:54.919Z,54.6
2023-04-16T08:28:55.968Z,55.4
2023-04-16T08:29:56.880Z,54.5
2023-04-16T08:30:58.009Z,54
2023-04-16T08:31:59.256Z,54
2023-04-16T08:33:00.548Z,54
2023-04-16T08:34:02.384Z,54
2023-04-16T08:35:04.129Z,53.6
2023-04-16T08:36:04.812Z,53.3
2023-04-16T08:37:06.044Z,52.7
2023-04-16T08:38:06.980Z,52.2
2023-04-16T08:39:08.272Z,52.6
2023-04-16T08:40:08.855Z,52.8
2023-04-16T08:41:10.021Z,53.3
2023-04-16T08:42:11.804Z,53.9
2023-04-16T08:43:13.141Z,53.8
2023-04-16T08:44:14.153Z,53.6
2023-04-16T08:45:14.978Z,52.7
2023-04-16T08:46:16.137Z,52.3
2023-04-16T08:47:17.297Z,52
2023-04-16T08:48:18.900Z,52.2
2023-04-16T08:49:20.155Z,51
2023-04-16T08:50:21.031Z,50.3
2023-04-16T08:51:22.185Z,49.3
2023-04-16T08:52:23.020Z,49.6
2023-04-16T08:53:24.298Z,49.9
2023-04-16T08:54:25.018Z,50.2
2023-04-16T08:55:26.532Z,50.6
2023-04-16T08:56:28.953Z,49
2023-04-16T08:57:30.126Z,48.4
2023-04-16T08:58:30.999Z,48.5
2023-04-16T08:59:33.116Z,47.8
2023-04-16T09:00:33.885Z,48.6
2023-04-16T09:01:34.937Z,49.1
2023-04-16T09:02:36.130Z,48.6
2023-04-16T09:03:37.413Z,48.9
2023-04-16T09:04:39.306Z,49.1
2023-04-16T09:05:40.080Z,48
2023-04-16T09:06:41.017Z,47.7
2023-04-16T09:07:42.125Z,47.7
2023-04-16T09:08:43.097Z,47.9
2023-04-16T09:09:44.200Z,46.5
2023-04-16T09:10:44.934Z,45.7
2023-04-16T09:11:46.195Z,46.1
2023-04-16T09:12:48.178Z,46.2
2023-04-16T09:13:48.900Z,45.2
2023-04-16T09:14:49.960Z,44.4
2023-04-16T09:15:51.071Z,44.6
2023-04-16T09:16:52.019Z,45.8
2023-04-16T09:17:53.152Z,45.6
2023-04-16T09:18:53.957Z,45.4
2023-04-16T09:19:54.875Z,45.5
2023-04-16T09:20:56.074Z,45.7
2023-04-16T09:21:56.882Z,45.1
2023-04-16T09:22:58.092Z,45
2023-04-16T09:23:58.928Z,45.4
2023-04-16T09:25:00.846Z,45.1
2023-04-16T09:26:01.951Z,44.2
2023-04-16T09:27:02.899Z,43.9
2023-04-16T09:28:03.946Z,43.6
2023-04-16T09:29:05.105Z,43.8
2023-04-16T09:30:05.944Z,44.1
2023-04-16T09:31:06.899Z,44
2023-04-16T09:32:08.126Z,44
2023-04-16T09:33:09.013Z,44.5
2023-04-16T09:34:09.922Z,44.6
2023-04-16T09:35:10.979Z,44.7
2023-04-16T09:36:12.064Z,44.8
2023-04-16T09:37:13.070Z,44.4
2023-04-16T09:38:14.081Z,44.1
2023-04-16T09:39:15.301Z,43.6
2023-04-16T09:40:16.960Z,43.1
2023-04-16T09:41:18.083Z,43.2
2023-04-16T09:42:19.042Z,43.1
2023-04-16T09:43:20.407Z,43.4
2023-04-16T09:44:22.203Z,44.1
2023-04-16T09:45:23.256Z,43.6
2023-04-16T09:46:24.139Z,43
2023-04-16T09:47:25.028Z,42.5
2023-04-16T09:48:26.172Z,42.4
2023-04-16T09:49:27.181Z,41.2
2023-04-16T09:50:27.900Z,40.7
2023-04-16T09:51:29.000Z,40.4
2023-04-16T09:52:29.906Z,39.6
2023-04-16T09:53:30.976Z,38.5
2023-04-16T09:54:32.004Z,39.1
2023-04-16T09:55:33.297Z,40
2023-04-16T09:56:34.250Z,40.1
2023-04-16T09:57:35.035Z,39.1
2023-04-16T09:58:35.862Z,39.7
2023-04-16T09:59:37.146Z,40.4
2023-04-16T10:00:42.181Z,41.2
2023-04-16T10:01:38.973Z,41.2
2023-04-16T10:02:40.153Z,40.1
2023-04-16T10:03:41.202Z,40
2023-04-16T10:04:42.110Z,39.6
2023-04-16T10:05:42.903Z,38.6
2023-04-16T10:06:44.210Z,38.9
2023-04-16T10:07:44.967Z,38.6
2023-04-16T10:08:47.858Z,38.7
2023-04-16T10:09:48.251Z,38.7
2023-04-16T10:10:49.407Z,38.5
2023-04-16T10:11:51.050Z,38.8
2023-04-16T10:12:52.026Z,38
2023-04-16T10:13:52.926Z,38
2023-04-16T10:14:54.038Z,38.6
2023-04-16T10:15:54.978Z,38.4
2023-04-16T10:16:55.967Z,38.4
2023-04-16T10:17:57.061Z,38.9
2023-04-16T10:18:57.929Z,39.2
2023-04-16T10:20:00.182Z,38.9
2023-04-16T10:21:00.882Z,38.6
2023-04-16T10:22:02.063Z,38.3
2023-04-16T10:23:03.087Z,37.2
2023-04-16T10:24:04.144Z,37.1
2023-04-16T10:25:04.984Z,36.3
2023-04-16T10:26:06.046Z,35.7
2023-04-16T10:27:06.958Z,36
2023-04-16T10:28:08.264Z,36.4
2023-04-16T10:29:09.284Z,36.3
2023-04-16T10:30:09.968Z,37.1
2023-04-16T10:31:11.155Z,37.9
2023-04-16T10:32:12.053Z,37.4
2023-04-16T10:33:13.367Z,36.8
2023-04-16T10:34:13.861Z,36.9
2023-04-16T10:35:15.083Z,36
2023-04-16T10:36:15.990Z,35.5
2023-04-16T10:37:16.962Z,35.1
2023-04-16T10:38:18.086Z,35.5
2023-04-16T10:39:19.258Z,35.1
2023-04-16T10:40:19.945Z,35.3
2023-04-16T10:41:20.947Z,35.4
2023-04-16T10:42:22.261Z,35.1
2023-04-16T10:43:23.149Z,35
2023-04-16T10:44:24.061Z,35.4
2023-04-16T10:45:25.000Z,35.2
2023-04-16T10:46:25.907Z,34.3
2023-04-16T10:47:26.981Z,33.8
2023-04-16T10:48:33.111Z,34.4
2023-04-16T10:49:28.980Z,35.2
2023-04-16T10:50:29.886Z,35.2
2023-04-16T10:51:30.967Z,34.2
2023-04-16T10:52:31.879Z,33.2
2023-04-16T10:53:33.352Z,32.7
2023-04-16T10:54:34.193Z,33
2023-04-16T10:55:35.063Z,33.3
2023-04-16T10:56:36.063Z,33.6
2023-04-16T10:57:38.239Z,33.1
2023-04-16T10:58:39.192Z,32.7
2023-04-16T10:59:39.964Z,32.6
2023-04-16T11:00:40.881Z,32
2023-04-16T11:01:42.128Z,31.3
2023-04-16T11:02:43.215Z,31.6
2023-04-16T11:03:44.036Z,31.4
2023-04-16T11:04:45.161Z,32.1
2023-04-16T11:05:46.048Z,32.5
2023-04-16T11:06:47.016Z,32.4
2023-04-16T11:07:49.558Z,32.6
2023-04-16T11:09:51.042Z,32
2023-04-16T11:10:52.220Z,31.1
2023-04-16T11:11:53.060Z,32
2023-04-16T11:12:54.050Z,32.7
2023-04-16T11:13:55.055Z,32.4
2023-04-16T11:14:55.926Z,32.3
2023-04-16T11:15:57.050Z,32.1
2023-04-16T11:16:58.041Z,32
2023-04-16T11:17:59.027Z,31.9
2023-04-16T11:19:00.159Z,32
2023-04-16T11:20:00.965Z,31.5
2023-04-16T11:21:02.144Z,30.7
2023-04-16T11:22:02.977Z,30.5
2023-04-16T11:23:03.896Z,30.6
2023-04-16T11:24:04.979Z,30.6
2023-04-16T11:25:06.038Z,30.3
2023-04-16T11:26:06.981Z,30.5
2023-04-16T11:27:07.940Z,29.7
2023-04-16T11:28:09.018Z,29.1
2023-04-16T11:29:10.029Z,29.5
2023-04-16T11:30:11.016Z,29.5
2023-04-16T11:31:12.250Z,29.5
2023-04-16T11:32:13.093Z,29.6
2023-04-16T11:33:14.140Z,30
2023-04-16T11:34:15.139Z,30.6
2023-04-16T11:35:16.480Z,31.2
2023-04-16T11:36:18.158Z,30.8
2023-04-16T11:37:19.223Z,31.1
2023-04-16T11:38:20.202Z,31.3
2023-04-16T11:39:21.048Z,31.7
2023-04-16T11:40:22.176Z,31.3
2023-04-16T11:41:23.063Z,30.5
2023-04-16T11:42:24.089Z,30.6
2023-04-16T11:43:25.044Z,30.3
2023-04-16T11:44:26.066Z,30.4
2023-04-16T11:45:27.019Z,31.4
2023-04-16T11:46:28.121Z,32.7
2023-04-16T11:47:29.196Z,32.7
2023-04-16T11:48:30.078Z,32.2
2023-04-16T11:49:31.047Z,32.2
2023-04-16T11:50:32.038Z,31.5
2023-04-16T11:51:33.037Z,31.1
2023-04-16T11:52:34.031Z,31
2023-04-16T11:53:35.041Z,31.4
2023-04-16T11:54:36.037Z,31.2
2023-04-16T11:55:36.949Z,30.8
2023-04-16T11:56:38.048Z,30.5
2023-04-16T11:57:39.102Z,31.2
2023-04-16T11:58:42.428Z,31.5
2023-04-16T12:00:01.262Z,31.5
2023-04-16T12:00:42.070Z,31.6
2023-04-16T12:01:43.091Z,32.5
2023-04-16T12:02:44.152Z,33.7
2023-04-16T12:03:45.164Z,34
2023-04-16T12:04:46.082Z,33.3
2023-04-16T12:05:47.111Z,33.8
2023-04-16T12:06:48.103Z,34.6
2023-04-16T12:07:49.079Z,33.8
2023-04-16T12:08:49.945Z,33.2
2023-04-16T12:09:51.032Z,32.6
2023-04-16T12:10:52.055Z,32.4
2023-04-16T12:11:53.132Z,32.3
2023-04-16T12:12:54.148Z,31.6
2023-04-16T12:13:54.998Z,31.1
2023-04-16T12:14:56.039Z,31.1
2023-04-16T12:15:57.350Z,31.5
2023-04-16T12:16:58.618Z,31.5
2023-04-16T12:18:00.898Z,31.2
2023-04-16T12:19:02.125Z,30.3
2023-04-16T12:20:03.144Z,30.2
2023-04-16T12:21:04.344Z,30.3
2023-04-16T12:22:05.209Z,30
2023-04-16T12:23:06.114Z,30.2
2023-04-16T12:24:07.177Z,30.9
2023-04-16T12:25:08.238Z,30.9
2023-04-16T12:26:09.258Z,31
2023-04-16T12:27:10.178Z,30.6
2023-04-16T12:28:10.947Z,30.2
2023-04-16T12:29:12.019Z,30.5
2023-04-16T12:30:13.012Z,30.7
2023-04-16T12:31:14.679Z,30.7
2023-04-16T12:32:16.049Z,30.7
2023-04-16T12:33:17.053Z,30
2023-04-16T12:34:18.041Z,29.7
2023-04-16T12:35:18.999Z,29.3
2023-04-16T12:36:20.026Z,28.9
2023-04-16T12:37:20.990Z,28.6
2023-04-16T12:38:24.198Z,28.4
2023-04-16T12:39:22.963Z,28.5
2023-04-16T12:40:24.102Z,27.1
2023-04-16T12:41:25.173Z,26.5
2023-04-16T12:42:26.084Z,25.8
2023-04-16T12:43:27.281Z,25.8
2023-04-16T12:44:28.042Z,25.6
2023-04-16T12:45:29.039Z,24.8
2023-04-16T12:46:30.184Z,24.7
2023-04-16T12:47:31.328Z,25.2
2023-04-16T12:48:32.413Z,25.4
2023-04-16T12:49:33.159Z,25.2
2023-04-16T12:50:34.622Z,24.2
2023-04-16T12:51:36.188Z,24.5
2023-04-16T12:52:37.017Z,25.1
2023-04-16T12:53:38.034Z,25.3
2023-04-16T12:54:39.043Z,25.4
2023-04-16T12:55:40.122Z,25.2
2023-04-16T12:56:41.558Z,25.5
2023-04-16T12:57:43.294Z,26
2023-04-16T12:58:44.115Z,26.6
2023-04-16T12:59:45.117Z,26.1
2023-04-16T13:00:46.022Z,26.1
2023-04-16T13:01:47.198Z,26.7
2023-04-16T13:02:48.239Z,26.7
2023-04-16T13:03:49.149Z,27.1
2023-04-16T13:04:50.067Z,27
2023-04-16T13:05:51.013Z,26.4
2023-04-16T13:06:52.414Z,26.1
2023-04-16T13:07:54.110Z,25.6
2023-04-16T13:08:55.062Z,25.9
2023-04-16T13:09:56.065Z,25.2
2023-04-16T13:10:57.001Z,25.8
2023-04-16T13:11:58.184Z,25.5
2023-04-16T13:12:58.998Z,25.5
2023-04-16T13:14:00.534Z,25.4
2023-04-16T13:15:02.190Z,24.9
2023-04-16T13:16:03.114Z,24.9
2023-04-16T13:17:04.006Z,25.2
2023-04-16T13:18:05.028Z,25.3
2023-04-16T13:19:06.223Z,25.5
2023-04-16T13:20:07.285Z,25.6
2023-04-16T13:21:08.098Z,25.4
2023-04-16T13:22:09.079Z,24.8
2023-04-16T13:23:10.108Z,25
2023-04-16T13:24:11.514Z,25.4
2023-04-16T13:25:13.184Z,25.6
2023-04-16T13:26:14.102Z,25.5
2023-04-16T13:27:15.161Z,25.8
2023-04-16T13:28:16.184Z,26.2
2023-04-16T13:29:17.210Z,26.7
2023-04-16T13:30:18.431Z,26.7
2023-04-16T13:31:19.063Z,27
2023-04-16T13:32:20.456Z,27.2
2023-04-16T13:33:22.178Z,28.2
2023-04-16T13:34:23.312Z,29
2023-04-16T13:35:24.388Z,29.5
2023-04-16T13:36:27.523Z,29.3
2023-04-16T13:37:26.651Z,29.4
2023-04-16T13:38:28.095Z,29
2023-04-16T13:39:29.018Z,29.6